sensor_id;sensor_type;location;lat;lon;timestamp;pressure;altitude;pressure_sealevel;temperature;humidity
73551;BME280;61816;53.582;10.096;2023-08-24T00:01:33;54327.66;;;-144.73;100.00
73551;BME280;61816;53.582;10.096;2023-08-24T00:03:58;54374.84;;;-144.73;100.00
73551;BME280;61816;53.582;10.096;2023-08-24T00:06:23;54407.69;;;-144.73;100.00
73551;BME280;61816;53.582;10.096;2023-08-24T00:08:49;54342.03;;;-144.73;100.00
73551;BME280;61816;53.582;10.096;2023-08-24T00:11:15;54362.53;;;-144.73;100.00
73551;BME280;61816;53.582;10.096;2023-08-24T00:13:44;54358.44;;;-144.73;100.00
73551;BME280;61816;53.582;10.096;2023-08-24T00:16:17;54364.59;;;-144.73;100.00
73551;BME280;61816;53.582;10.096;2023-08-24T00:18:43;54346.13;;;-144.73;100.00
73551;BME280;61816;53.582;10.096;2023-08-24T00:21:10;54383.06;;;-144.73;100.00
73551;BME280;61816;53.582;10.096;2023-08-24T00:23:37;54344.06;;;-144.73;100.00
73551;BME280;61816;53.582;10.096;2023-08-24T00:26:02;54319.44;;;-144.73;100.00
73551;BME280;61816;53.582;10.096;2023-08-24T00:28:27;54366.66;;;-144.73;100.00
73551;BME280;61816;53.582;10.096;2023-08-24T00:30:53;54370.75;;;-144.73;100.00
73551;BME280;61816;53.582;10.096;2023-08-24T00:33:18;54358.44;;;-144.73;100.00
73551;BME280;61816;53.582;10.096;2023-08-24T00:35:44;54378.97;;;-144.73;100.00
73551;BME280;61816;53.582;10.096;2023-08-24T00:38:10;54329.72;;;-144.73;100.00
73551;BME280;61816;53.582;10.096;2023-08-24T00:40:35;54376.91;;;-144.73;100.00
73551;BME280;61816;53.582;10.096;2023-08-24T00:43:01;54350.22;;;-144.73;100.00
73551;BME280;61816;53.582;10.096;2023-08-24T00:45:26;54383.06;;;-144.73;100.00
73551;BME280;61816;53.582;10.096;2023-08-24T00:47:52;54356.38;;;-144.73;100.00
73551;BME280;61816;53.582;10.096;2023-08-24T00:50:18;54313.28;;;-144.73;100.00
73551;BME280;61816;53.582;10.096;2023-08-24T00:52:44;54354.34;;;-144.73;100.00
73551;BME280;61816;53.582;10.096;2023-08-24T00:55:09;54358.44;;;-144.73;100.00
73551;BME280;61816;53.582;10.096;2023-08-24T00:57:35;54352.28;;;-144.73;100.00
73551;BME280;61816;53.582;10.096;2023-08-24T01:00:04;54391.28;;;-144.73;100.00
73551;BME280;61816;53.582;10.096;2023-08-24T01:02:31;54346.13;;;-144.73;100.00
73551;BME280;61816;53.582;10.096;2023-08-24T01:04:58;54348.19;;;-144.73;100.00
73551;BME280;61816;53.582;10.096;2023-08-24T01:07:24;54335.88;;;-144.73;100.00
73551;BME280;61816;53.582;10.096;2023-08-24T01:09:50;54362.53;;;-144.73;100.00
73551;BME280;61816;53.582;10.096;2023-08-24T01:12:32;54350.22;;;-144.73;100.00
73551;BME280;61816;53.582;10.096;2023-08-24T01:17:38;54391.28;;;-144.73;100.00
73551;BME280;61816;53.582;10.096;2023-08-24T01:20:04;54366.66;;;-144.73;100.00
73551;BME280;61816;53.582;10.096;2023-08-24T01:22:34;54333.81;;;-144.73;100.00
73551;BME280;61816;53.582;10.096;2023-08-24T01:25:14;54358.44;;;-144.73;100.00
73551;BME280;61816;53.582;10.096;2023-08-24T01:27:42;54374.84;;;-144.73;100.00
73551;BME280;61816;53.582;10.096;2023-08-24T01:30:08;54329.72;;;-144.73;100.00
73551;BME280;61816;53.582;10.096;2023-08-24T01:32:35;54317.38;;;-144.73;100.00
73551;BME280;61816;53.582;10.096;2023-08-24T01:35:03;54358.44;;;-144.73;100.00
73551;BME280;61816;53.582;10.096;2023-08-24T01:37:29;54378.97;;;-144.73;100.00
73551;BME280;61816;53.582;10.096;2023-08-24T01:40:15;54370.75;;;-144.73;100.00
73551;BME280;61816;53.582;10.096;2023-08-24T01:42:52;54335.88;;;-144.73;100.00
73551;BME280;61816;53.582;10.096;2023-08-24T01:45:20;54331.75;;;-144.73;100.00
73551;BME280;61816;53.582;10.096;2023-08-24T01:47:48;54358.44;;;-144.73;100.00
73551;BME280;61816;53.582;10.096;2023-08-24T01:50:14;54342.03;;;-144.73;100.00
73551;BME280;61816;53.582;10.096;2023-08-24T01:52:41;54415.91;;;-144.73;100.00
73551;BME280;61816;53.582;10.096;2023-08-24T01:55:07;54339.97;;;-144.73;100.00
73551;BME280;61816;53.582;10.096;2023-08-24T01:57:32;54337.91;;;-144.73;100.00
73551;BME280;61816;53.582;10.096;2023-08-24T01:59:58;54346.13;;;-144.73;100.00
73551;BME280;61816;53.582;10.096;2023-08-24T02:02:24;54354.34;;;-144.73;100.00
73551;BME280;61816;53.582;10.096;2023-08-24T02:04:50;54366.66;;;-144.73;100.00
73551;BME280;61816;53.582;10.096;2023-08-24T02:07:16;54346.13;;;-144.73;100.00
73551;BME280;61816;53.582;10.096;2023-08-24T02:09:41;54424.13;;;-144.73;100.00
73551;BME280;61816;53.582;10.096;2023-08-24T02:12:06;54374.84;;;-144.73;100.00
73551;BME280;61816;53.582;10.096;2023-08-24T02:14:32;54383.06;;;-144.73;100.00
73551;BME280;61816;53.582;10.096;2023-08-24T02:16:57;54374.84;;;-144.73;100.00
73551;BME280;61816;53.582;10.096;2023-08-24T02:19:23;54370.75;;;-144.73;100.00
73551;BME280;61816;53.582;10.096;2023-08-24T02:21:48;54399.50;;;-144.73;100.00
73551;BME280;61816;53.582;10.096;2023-08-24T02:24:13;54391.28;;;-144.73;100.00
73551;BME280;61816;53.582;10.096;2023-08-24T02:26:39;54366.66;;;-144.73;100.00
73551;BME280;61816;53.582;10.096;2023-08-24T02:29:04;54342.03;;;-144.73;100.00
73551;BME280;61816;53.582;10.096;2023-08-24T02:31:29;54383.06;;;-144.73;100.00
73551;BME280;61816;53.582;10.096;2023-08-24T02:33:55;54358.44;;;-144.73;100.00
73551;BME280;61816;53.582;10.096;2023-08-24T02:36:21;54346.13;;;-144.73;100.00
73551;BME280;61816;53.582;10.096;2023-08-24T02:38:46;54374.84;;;-144.73;100.00
73551;BME280;61816;53.582;10.096;2023-08-24T02:41:12;54368.69;;;-144.73;100.00
73551;BME280;61816;53.582;10.096;2023-08-24T02:43:39;54411.81;;;-144.73;100.00
73551;BME280;61816;53.582;10.096;2023-08-24T02:46:08;54370.75;;;-144.73;100.00
73551;BME280;61816;53.582;10.096;2023-08-24T02:48:35;54370.75;;;-144.73;100.00
73551;BME280;61816;53.582;10.096;2023-08-24T02:51:02;54356.38;;;-144.73;100.00
73551;BME280;61816;53.582;10.096;2023-08-24T02:53:28;54383.06;;;-144.73;100.00
73551;BME280;61816;53.582;10.096;2023-08-24T02:55:54;54346.13;;;-144.73;100.00
73551;BME280;61816;53.582;10.096;2023-08-24T02:58:20;54358.44;;;-144.73;100.00
73551;BME280;61816;53.582;10.096;2023-08-24T03:00:46;54366.66;;;-144.73;100.00
73551;BME280;61816;53.582;10.096;2023-08-24T03:03:16;54350.22;;;-144.73;100.00
73551;BME280;61816;53.582;10.096;2023-08-24T03:05:57;54391.28;;;-144.73;100.00
73551;BME280;61816;53.582;10.096;2023-08-24T03:08:23;54374.84;;;-144.73;100.00
73551;BME280;61816;53.582;10.096;2023-08-24T03:10:49;54411.81;;;-144.73;100.00
73551;BME280;61816;53.582;10.096;2023-08-24T03:13:15;54370.75;;;-144.73;100.00
73551;BME280;61816;53.582;10.096;2023-08-24T03:15:40;54378.97;;;-144.73;100.00
73551;BME280;61816;53.582;10.096;2023-08-24T03:18:06;54391.28;;;-144.73;100.00
73551;BME280;61816;53.582;10.096;2023-08-24T03:20:31;54362.53;;;-144.73;100.00
73551;BME280;61816;53.582;10.096;2023-08-24T03:22:56;54391.28;;;-144.73;100.00
73551;BME280;61816;53.582;10.096;2023-08-24T03:25:22;54397.44;;;-144.73;100.00
73551;BME280;61816;53.582;10.096;2023-08-24T03:27:48;54415.91;;;-144.73;100.00
73551;BME280;61816;53.582;10.096;2023-08-24T03:30:13;54374.84;;;-144.73;100.00
73551;BME280;61816;53.582;10.096;2023-08-24T03:32:42;54370.75;;;-144.73;100.00
73551;BME280;61816;53.582;10.096;2023-08-24T03:35:08;54415.91;;;-144.73;100.00
73551;BME280;61816;53.582;10.096;2023-08-24T03:37:33;54378.97;;;-144.73;100.00
73551;BME280;61816;53.582;10.096;2023-08-24T03:39:59;54362.53;;;-144.73;100.00
73551;BME280;61816;53.582;10.096;2023-08-24T03:42:24;54362.53;;;-144.73;100.00
73551;BME280;61816;53.582;10.096;2023-08-24T03:44:49;54415.91;;;-144.73;100.00
73551;BME280;61816;53.582;10.096;2023-08-24T03:47:15;54370.75;;;-144.73;100.00
73551;BME280;61816;53.582;10.096;2023-08-24T03:49:43;54374.84;;;-144.73;100.00
73551;BME280;61816;53.582;10.096;2023-08-24T03:52:09;54397.44;;;-144.73;100.00
73551;BME280;61816;53.582;10.096;2023-08-24T03:54:34;54407.69;;;-144.73;100.00
73551;BME280;61816;53.582;10.096;2023-08-24T03:56:59;54395.38;;;-144.73;100.00
73551;BME280;61816;53.582;10.096;2023-08-24T03:59:25;54391.28;;;-144.73;100.00
73551;BME280;61816;53.582;10.096;2023-08-24T04:01:50;54407.69;;;-144.73;100.00
73551;BME280;61816;53.582;10.096;2023-08-24T04:04:15;54378.97;;;-144.73;100.00
73551;BME280;61816;53.582;10.096;2023-08-24T04:06:41;54415.91;;;-144.73;100.00
73551;BME280;61816;53.582;10.096;2023-08-24T04:09:06;54381.00;;;-144.73;100.00
73551;BME280;61816;53.582;10.096;2023-08-24T04:11:31;54391.28;;;-144.73;100.00
73551;BME280;61816;53.582;10.096;2023-08-24T04:13:57;54420.00;;;-144.73;100.00
73551;BME280;61816;53.582;10.096;2023-08-24T04:16:22;54415.91;;;-144.73;100.00
73551;BME280;61816;53.582;10.096;2023-08-24T04:18:47;54391.28;;;-144.73;100.00
73551;BME280;61816;53.582;10.096;2023-08-24T04:21:13;54383.06;;;-144.73;100.00
73551;BME280;61816;53.582;10.096;2023-08-24T04:23:38;54387.19;;;-144.73;100.00
73551;BME280;61816;53.582;10.096;2023-08-24T04:26:07;54387.19;;;-144.73;100.00
73551;BME280;61816;53.582;10.096;2023-08-24T04:28:33;54358.44;;;-144.73;100.00
73551;BME280;61816;53.582;10.096;2023-08-24T04:30:58;54383.06;;;-144.73;100.00
73551;BME280;61816;53.582;10.096;2023-08-24T04:33:23;54407.69;;;-144.73;100.00
73551;BME280;61816;53.582;10.096;2023-08-24T04:35:49;54409.75;;;-144.73;100.00
73551;BME280;61816;53.582;10.096;2023-08-24T04:38:16;54387.19;;;-144.73;100.00
73551;BME280;61816;53.582;10.096;2023-08-24T04:40:50;54368.69;;;-144.73;100.00
73551;BME280;61816;53.582;10.096;2023-08-24T04:43:16;54350.22;;;-144.73;100.00
73551;BME280;61816;53.582;10.096;2023-08-24T04:45:42;54385.13;;;-144.73;100.00
73551;BME280;61816;53.582;10.096;2023-08-24T04:48:07;54385.13;;;-144.73;100.00
73551;BME280;61816;53.582;10.096;2023-08-24T04:50:33;54424.13;;;-144.73;100.00
73551;BME280;61816;53.582;10.096;2023-08-24T04:52:58;54387.19;;;-144.73;100.00
73551;BME280;61816;53.582;10.096;2023-08-24T04:55:24;54428.22;;;-144.73;100.00
73551;BME280;61816;53.582;10.096;2023-08-24T04:57:49;54407.69;;;-144.73;100.00
73551;BME280;61816;53.582;10.096;2023-08-24T05:00:15;54378.97;;;-144.73;100.00
73551;BME280;61816;53.582;10.096;2023-08-24T05:02:42;54422.06;;;-144.73;100.00
73551;BME280;61816;53.582;10.096;2023-08-24T05:05:08;54420.00;;;-144.73;100.00
73551;BME280;61816;53.582;10.096;2023-08-24T05:07:37;54391.28;;;-144.73;100.00
73551;BME280;61816;53.582;10.096;2023-08-24T05:10:03;54391.28;;;-144.73;100.00
73551;BME280;61816;53.582;10.096;2023-08-24T05:12:29;54411.81;;;-144.73;100.00
73551;BME280;61816;53.582;10.096;2023-08-24T05:14:55;54407.69;;;-144.73;100.00
73551;BME280;61816;53.582;10.096;2023-08-24T05:17:20;54383.06;;;-144.73;100.00
73551;BME280;61816;53.582;10.096;2023-08-24T05:19:50;54407.69;;;-144.73;100.00
73551;BME280;61816;53.582;10.096;2023-08-24T05:22:16;54428.22;;;-144.73;100.00
73551;BME280;61816;53.582;10.096;2023-08-24T05:24:41;54407.69;;;-144.73;100.00
73551;BME280;61816;53.582;10.096;2023-08-24T05:27:07;54378.97;;;-144.73;100.00
73551;BME280;61816;53.582;10.096;2023-08-24T05:29:32;54407.69;;;-144.73;100.00
73551;BME280;61816;53.582;10.096;2023-08-24T05:31:57;54407.69;;;-144.73;100.00
73551;BME280;61816;53.582;10.096;2023-08-24T05:34:23;54378.97;;;-144.73;100.00
73551;BME280;61816;53.582;10.096;2023-08-24T05:36:48;54415.91;;;-144.73;100.00
73551;BME280;61816;53.582;10.096;2023-08-24T05:39:13;54415.91;;;-144.73;100.00
73551;BME280;61816;53.582;10.096;2023-08-24T05:41:39;54391.28;;;-144.73;100.00
73551;BME280;61816;53.582;10.096;2023-08-24T05:44:04;54428.22;;;-144.73;100.00
73551;BME280;61816;53.582;10.096;2023-08-24T05:46:29;54411.81;;;-144.73;100.00
73551;BME280;61816;53.582;10.096;2023-08-24T05:48:55;54417.97;;;-144.73;100.00
73551;BME280;61816;53.582;10.096;2023-08-24T05:51:21;54407.69;;;-144.73;100.00
73551;BME280;61816;53.582;10.096;2023-08-24T05:53:47;54422.06;;;-144.73;100.00
73551;BME280;61816;53.582;10.096;2023-08-24T05:56:12;54415.91;;;-144.73;100.00
73551;BME280;61816;53.582;10.096;2023-08-24T05:58:37;54432.31;;;-144.73;100.00
73551;BME280;61816;53.582;10.096;2023-08-24T06:01:03;54399.50;;;-144.73;100.00
73551;BME280;61816;53.582;10.096;2023-08-24T06:03:28;54415.91;;;-144.73;100.00
73551;BME280;61816;53.582;10.096;2023-08-24T06:05:53;54420.00;;;-144.73;100.00
73551;BME280;61816;53.582;10.096;2023-08-24T06:08:19;54407.69;;;-144.73;100.00
73551;BME280;61816;53.582;10.096;2023-08-24T06:10:45;54378.97;;;-144.73;100.00
73551;BME280;61816;53.582;10.096;2023-08-24T06:13:10;54424.13;;;-144.73;100.00
73551;BME280;61816;53.582;10.096;2023-08-24T06:15:35;54387.19;;;-144.73;100.00
73551;BME280;61816;53.582;10.096;2023-08-24T06:18:01;54374.84;;;-144.73;100.00
73551;BME280;61816;53.582;10.096;2023-08-24T06:20:26;54399.50;;;-144.73;100.00
73551;BME280;61816;53.582;10.096;2023-08-24T06:22:51;54399.50;;;-144.73;100.00
73551;BME280;61816;53.582;10.096;2023-08-24T06:25:17;54409.75;;;-144.73;100.00
73551;BME280;61816;53.582;10.096;2023-08-24T06:27:43;54397.44;;;-144.73;100.00
73551;BME280;61816;53.582;10.096;2023-08-24T06:30:08;54354.34;;;-144.73;100.00
73551;BME280;61816;53.582;10.096;2023-08-24T06:32:34;54368.69;;;-144.73;100.00
73551;BME280;61816;53.582;10.096;2023-08-24T06:34:59;54383.06;;;-144.73;100.00
73551;BME280;61816;53.582;10.096;2023-08-24T06:37:25;54411.81;;;-144.73;100.00
73551;BME280;61816;53.582;10.096;2023-08-24T06:39:51;54430.28;;;-144.73;100.00
73551;BME280;61816;53.582;10.096;2023-08-24T06:42:16;54440.53;;;-144.73;100.00
73551;BME280;61816;53.582;10.096;2023-08-24T06:44:41;54428.22;;;-144.73;100.00
73551;BME280;61816;53.582;10.096;2023-08-24T06:47:07;54383.06;;;-144.73;100.00
73551;BME280;61816;53.582;10.096;2023-08-24T06:49:32;54407.69;;;-144.73;100.00
73551;BME280;61816;53.582;10.096;2023-08-24T06:51:57;54383.06;;;-144.73;100.00
73551;BME280;61816;53.582;10.096;2023-08-24T06:54:23;54395.38;;;-144.73;100.00
73551;BME280;61816;53.582;10.096;2023-08-24T06:56:48;54399.50;;;-144.73;100.00
73551;BME280;61816;53.582;10.096;2023-08-24T06:59:13;54420.00;;;-144.73;100.00
73551;BME280;61816;53.582;10.096;2023-08-24T07:01:39;54407.69;;;-144.73;100.00
73551;BME280;61816;53.582;10.096;2023-08-24T07:04:06;54407.69;;;-144.73;100.00
73551;BME280;61816;53.582;10.096;2023-08-24T07:06:33;54387.19;;;-144.73;100.00
73551;BME280;61816;53.582;10.096;2023-08-24T07:08:59;54411.81;;;-144.73;100.00
73551;BME280;61816;53.582;10.096;2023-08-24T07:11:25;54415.91;;;-144.73;100.00
73551;BME280;61816;53.582;10.096;2023-08-24T07:13:51;54350.22;;;-144.73;100.00
73551;BME280;61816;53.582;10.096;2023-08-24T07:16:19;54399.50;;;-144.73;100.00
73551;BME280;61816;53.582;10.096;2023-08-24T07:18:44;54387.19;;;-144.73;100.00
73551;BME280;61816;53.582;10.096;2023-08-24T07:21:09;54407.69;;;-144.73;100.00
73551;BME280;61816;53.582;10.096;2023-08-24T07:23:35;54378.97;;;-144.73;100.00
73551;BME280;61816;53.582;10.096;2023-08-24T07:26:00;54393.34;;;-144.73;100.00
73551;BME280;61816;53.582;10.096;2023-08-24T07:28:25;54399.50;;;-144.73;100.00
73551;BME280;61816;53.582;10.096;2023-08-24T07:30:51;54356.38;;;-144.73;100.00
73551;BME280;61816;53.582;10.096;2023-08-24T07:33:21;54424.13;;;-144.73;100.00
73551;BME280;61816;53.582;10.096;2023-08-24T07:35:47;54331.75;;;-144.73;100.00
73551;BME280;61816;53.582;10.096;2023-08-24T07:38:12;54387.19;;;-144.73;100.00
73551;BME280;61816;53.582;10.096;2023-08-24T07:40:38;54346.13;;;-144.73;100.00
73551;BME280;61816;53.582;10.096;2023-08-24T07:43:03;54393.34;;;-144.73;100.00
73551;BME280;61816;53.582;10.096;2023-08-24T07:45:29;54374.84;;;-144.73;100.00
73551;BME280;61816;53.582;10.096;2023-08-24T07:47:55;54374.84;;;-144.73;100.00
73551;BME280;61816;53.582;10.096;2023-08-24T07:50:20;54337.91;;;-144.73;100.00
73551;BME280;61816;53.582;10.096;2023-08-24T07:52:47;54346.13;;;-144.73;100.00
73551;BME280;61816;53.582;10.096;2023-08-24T07:55:12;54358.44;;;-144.73;100.00
73551;BME280;61816;53.582;10.096;2023-08-24T07:57:38;54358.44;;;-144.73;100.00
73551;BME280;61816;53.582;10.096;2023-08-24T08:00:04;54407.69;;;-144.73;100.00
73551;BME280;61816;53.582;10.096;2023-08-24T08:02:30;54325.59;;;-144.73;100.00
73551;BME280;61816;53.582;10.096;2023-08-24T08:04:58;54354.34;;;-144.73;100.00
73551;BME280;61816;53.582;10.096;2023-08-24T08:07:25;54350.22;;;-144.73;100.00
73551;BME280;61816;53.582;10.096;2023-08-24T08:09:50;54329.72;;;-144.73;100.00
73551;BME280;61816;53.582;10.096;2023-08-24T08:12:16;54337.91;;;-144.73;100.00
73551;BME280;61816;53.582;10.096;2023-08-24T08:14:41;54383.06;;;-144.73;100.00
73551;BME280;61816;53.582;10.096;2023-08-24T08:17:06;54354.34;;;-144.73;100.00
73551;BME280;61816;53.582;10.096;2023-08-24T08:19:32;54342.03;;;-144.73;100.00
73551;BME280;61816;53.582;10.096;2023-08-24T08:22:00;54344.06;;;-144.73;100.00
73551;BME280;61816;53.582;10.096;2023-08-24T08:24:25;54313.28;;;-144.73;100.00
73551;BME280;61816;53.582;10.096;2023-08-24T08:26:50;54346.13;;;-144.73;100.00
73551;BME280;61816;53.582;10.096;2023-08-24T08:29:16;54350.22;;;-144.73;100.00
73551;BME280;61816;53.582;10.096;2023-08-24T08:31:42;54333.81;;;-144.73;100.00
73551;BME280;61816;53.582;10.096;2023-08-24T08:34:07;54329.72;;;-144.73;99.60
73551;BME280;61816;53.582;10.096;2023-08-24T08:36:32;54329.72;;;-144.73;97.50
73551;BME280;61816;53.582;10.096;2023-08-24T08:38:58;54344.06;;;-144.73;100.00
73551;BME280;61816;53.582;10.096;2023-08-24T08:41:27;54354.34;;;-144.73;95.21
73551;BME280;61816;53.582;10.096;2023-08-24T08:43:55;54329.72;;;-144.73;99.88
73551;BME280;61816;53.582;10.096;2023-08-24T08:46:21;54305.06;;;-144.73;94.45
73551;BME280;61816;53.582;10.096;2023-08-24T08:48:46;54362.53;;;-144.73;95.69
73551;BME280;61816;53.582;10.096;2023-08-24T08:51:13;54315.34;;;-144.73;93.97
73551;BME280;61816;53.582;10.096;2023-08-24T08:53:40;54325.59;;;-144.73;93.79
73551;BME280;61816;53.582;10.096;2023-08-24T08:56:06;54333.81;;;-144.73;92.43
73551;BME280;61816;53.582;10.096;2023-08-24T08:58:33;54284.56;;;-144.73;91.50
73551;BME280;61816;53.582;10.096;2023-08-24T09:01:02;54342.03;;;-144.73;88.11
73551;BME280;61816;53.582;10.096;2023-08-24T09:03:31;54288.66;;;-144.73;89.31
73551;BME280;61816;53.582;10.096;2023-08-24T09:05:57;54333.81;;;-144.73;86.08
73551;BME280;61816;53.582;10.096;2023-08-24T09:08:26;54337.91;;;-144.73;85.80
73551;BME280;61816;53.582;10.096;2023-08-24T09:10:54;54315.34;;;-144.73;87.62
73551;BME280;61816;53.582;10.096;2023-08-24T09:13:20;54317.38;;;-144.73;82.69
73551;BME280;61816;53.582;10.096;2023-08-24T09:15:46;54309.19;;;-144.73;83.46
73551;BME280;61816;53.582;10.096;2023-08-24T09:18:11;54319.44;;;-144.73;79.76
73551;BME280;61816;53.582;10.096;2023-08-24T09:20:37;54358.44;;;-144.73;81.51
73551;BME280;61816;53.582;10.096;2023-08-24T09:23:02;54321.50;;;-144.73;81.26
73551;BME280;61816;53.582;10.096;2023-08-24T09:25:28;54300.97;;;-144.73;76.56
73551;BME280;61816;53.582;10.096;2023-08-24T09:30:22;54329.72;;;-144.73;80.99
73551;BME280;61816;53.582;10.096;2023-08-24T09:32:48;54313.28;;;-144.73;78.23
73551;BME280;61816;53.582;10.096;2023-08-24T09:35:13;54329.72;;;-144.73;77.38
73551;BME280;61816;53.582;10.096;2023-08-24T09:37:41;54315.34;;;-144.73;82.95
73551;BME280;61816;53.582;10.096;2023-08-24T09:40:11;54276.34;;;-144.73;80.47
73551;BME280;61816;53.582;10.096;2023-08-24T09:42:41;54346.13;;;-144.73;80.01
73551;BME280;61816;53.582;10.096;2023-08-24T09:45:16;54309.19;;;-144.73;84.54
73551;BME280;61816;53.582;10.096;2023-08-24T09:47:46;54300.97;;;-144.73;81.74
73551;BME280;61816;53.582;10.096;2023-08-24T09:50:12;54305.06;;;-144.73;81.89
73551;BME280;61816;53.582;10.096;2023-08-24T09:52:37;54321.50;;;-144.73;79.53
73551;BME280;61816;53.582;10.096;2023-08-24T09:55:07;54288.66;;;-144.73;79.37
73551;BME280;61816;53.582;10.096;2023-08-24T09:57:38;54305.06;;;-144.73;80.42
73551;BME280;61816;53.582;10.096;2023-08-24T10:00:08;54284.56;;;-144.73;80.76
73551;BME280;61816;53.582;10.096;2023-08-24T10:02:49;54311.22;;;-144.73;81.36
73551;BME280;61816;53.582;10.096;2023-08-24T10:05:19;54313.28;;;-144.73;81.48
73551;BME280;61816;53.582;10.096;2023-08-24T10:07:56;54305.06;;;-144.73;85.79
73551;BME280;61816;53.582;10.096;2023-08-24T10:10:26;54257.88;;;-144.73;79.95
73551;BME280;61816;53.582;10.096;2023-08-24T10:12:56;54346.13;;;-144.73;85.38
73551;BME280;61816;53.582;10.096;2023-08-24T10:15:23;54296.88;;;-144.73;82.88
73551;BME280;61816;53.582;10.096;2023-08-24T10:17:50;54268.13;;;-144.73;81.46
73551;BME280;61816;53.582;10.096;2023-08-24T10:20:18;54325.59;;;-144.73;78.75
73551;BME280;61816;53.582;10.096;2023-08-24T10:22:46;54335.88;;;-144.73;80.86
73551;BME280;61816;53.582;10.096;2023-08-24T10:25:11;54276.34;;;-144.73;74.95
73551;BME280;61816;53.582;10.096;2023-08-24T10:27:39;54300.97;;;-144.73;72.72
73551;BME280;61816;53.582;10.096;2023-08-24T10:30:12;54276.34;;;-144.73;73.85
73551;BME280;61816;53.582;10.096;2023-08-24T10:32:39;54243.50;;;-144.73;74.50
73551;BME280;61816;53.582;10.096;2023-08-24T10:35:06;54290.72;;;-144.73;74.70
73551;BME280;61816;53.582;10.096;2023-08-24T10:37:31;54280.44;;;-144.73;76.09
73551;BME280;61816;53.582;10.096;2023-08-24T10:39:59;54284.56;;;-144.73;71.11
73551;BME280;61816;53.582;10.096;2023-08-24T10:42:26;54333.81;;;-144.73;68.96
73551;BME280;61816;53.582;10.096;2023-08-24T10:44:52;54276.34;;;-144.73;68.88
73551;BME280;61816;53.582;10.096;2023-08-24T10:47:22;54259.91;;;-144.73;70.23
73551;BME280;61816;53.582;10.096;2023-08-24T10:54:53;54342.03;;;-144.73;66.79
73551;BME280;61816;53.582;10.096;2023-08-24T10:57:21;54280.44;;;-144.73;66.97
73551;BME280;61816;53.582;10.096;2023-08-24T11:00:00;54266.06;;;-144.73;64.62
73551;BME280;61816;53.582;10.096;2023-08-24T11:02:51;54239.41;;;-144.73;62.34
73551;BME280;61816;53.582;10.096;2023-08-24T11:05:28;54251.72;;;-144.73;63.78
73551;BME280;61816;53.582;10.096;2023-08-24T11:07:56;54280.44;;;-144.73;59.71
73551;BME280;61816;53.582;10.096;2023-08-24T11:10:24;54276.34;;;-144.73;62.17
73551;BME280;61816;53.582;10.096;2023-08-24T11:15:38;54259.91;;;-144.73;58.46
73551;BME280;61816;53.582;10.096;2023-08-24T11:18:27;54239.41;;;-144.73;58.74
73551;BME280;61816;53.582;10.096;2023-08-24T11:21:00;54198.34;;;-144.73;59.74
73551;BME280;61816;53.582;10.096;2023-08-24T11:23:26;54342.03;;;-144.73;58.75
73551;BME280;61816;53.582;10.096;2023-08-24T11:25:52;54227.09;;;-144.73;59.42
73551;BME280;61816;53.582;10.096;2023-08-24T11:28:22;54239.41;;;-144.73;57.30
73551;BME280;61816;53.582;10.096;2023-08-24T11:30:48;54239.41;;;-144.73;55.92
73551;BME280;61816;53.582;10.096;2023-08-24T11:33:14;54235.28;;;-144.73;54.92
73551;BME280;61816;53.582;10.096;2023-08-24T11:35:43;54231.19;;;-144.73;57.91
73551;BME280;61816;53.582;10.096;2023-08-24T11:38:10;54239.41;;;-144.73;60.07
73551;BME280;61816;53.582;10.096;2023-08-24T11:40:36;54237.34;;;-144.73;57.93
73551;BME280;61816;53.582;10.096;2023-08-24T11:43:03;54276.34;;;-144.73;57.17
73551;BME280;61816;53.582;10.096;2023-08-24T11:45:32;54305.06;;;-144.73;62.03
73551;BME280;61816;53.582;10.096;2023-08-24T11:48:02;54300.97;;;-144.73;62.07
73551;BME280;61816;53.582;10.096;2023-08-24T11:50:29;54292.75;;;-144.73;62.25
73551;BME280;61816;53.582;10.096;2023-08-24T11:52:55;54251.72;;;-144.73;59.28
73551;BME280;61816;53.582;10.096;2023-08-24T11:55:24;54276.34;;;-144.73;59.00
73551;BME280;61816;53.582;10.096;2023-08-24T11:57:50;54235.28;;;-144.73;58.65
73551;BME280;61816;53.582;10.096;2023-08-24T12:00:18;54243.50;;;-144.73;59.79
73551;BME280;61816;53.582;10.096;2023-08-24T12:02:45;54276.34;;;-144.73;57.49
73551;BME280;61816;53.582;10.096;2023-08-24T12:05:24;54243.50;;;-144.73;57.64
73551;BME280;61816;53.582;10.096;2023-08-24T12:07:51;54247.59;;;-144.73;56.04
73551;BME280;61816;53.582;10.096;2023-08-24T12:10:17;54247.59;;;-144.73;57.09
73551;BME280;61816;53.582;10.096;2023-08-24T12:12:42;54227.09;;;-144.73;56.33
73551;BME280;61816;53.582;10.096;2023-08-24T12:15:15;54235.28;;;-144.73;55.19
73551;BME280;61816;53.582;10.096;2023-08-24T12:17:44;54235.28;;;-144.73;48.74
73551;BME280;61816;53.582;10.096;2023-08-24T12:20:17;54251.72;;;-144.73;51.64
73551;BME280;61816;53.582;10.096;2023-08-24T12:22:43;54218.88;;;-144.73;51.19
73551;BME280;61816;53.582;10.096;2023-08-24T12:25:08;54218.88;;;-144.73;54.11
73551;BME280;61816;53.582;10.096;2023-08-24T12:27:34;54235.28;;;-144.73;51.80
73551;BME280;61816;53.582;10.096;2023-08-24T12:30:03;54206.56;;;-144.73;51.03
73551;BME280;61816;53.582;10.096;2023-08-24T12:32:45;54222.97;;;-144.73;50.74
73551;BME280;61816;53.582;10.096;2023-08-24T12:35:11;54202.44;;;-144.73;51.32